createdAt,value
2022-10-08T00:01:11.571Z,2.80
2022-10-08T00:03:41.273Z,2.40
2022-10-08T00:06:12.453Z,2.92
2022-10-08T00:08:41.842Z,3.42
2022-10-08T00:11:16.479Z,3.40
2022-10-08T00:13:45.299Z,3.65
2022-10-08T00:16:15.618Z,2.55
2022-10-08T00:18:44.281Z,3.53
2022-10-08T00:21:15.944Z,2.95
2022-10-08T00:23:44.483Z,2.92
2022-10-08T00:26:11.567Z,2.67
2022-10-08T00:28:41.939Z,2.92
2022-10-08T00:31:11.388Z,2.85
2022-10-08T00:33:38.611Z,3.53
2022-10-08T00:36:08.404Z,3.60
2022-10-08T00:38:35.773Z,2.55
2022-10-08T00:41:05.499Z,3.40
2022-10-08T00:43:43.934Z,2.65
2022-10-08T00:46:34.763Z,3.10
2022-10-08T00:49:13.359Z,2.85
2022-10-08T00:51:46.056Z,3.25
2022-10-08T00:54:13.781Z,3.00
2022-10-08T00:56:41.555Z,3.92
2022-10-08T00:59:10.785Z,3.33
2022-10-08T01:01:37.888Z,2.58
2022-10-08T01:04:07.229Z,2.60
2022-10-08T01:07:05.446Z,2.78
2022-10-08T01:10:06.222Z,3.83
2022-10-08T01:13:00.787Z,3.47
2022-10-08T01:15:27.700Z,2.40
2022-10-08T01:18:00.391Z,2.90
2022-10-08T01:20:42.135Z,2.83
2022-10-08T01:23:34.822Z,3.53
2022-10-08T01:26:36.719Z,3.40
2022-10-08T01:29:14.887Z,3.58
2022-10-08T01:31:47.881Z,2.60
2022-10-08T01:34:41.635Z,3.13
2022-10-08T01:39:39.144Z,3.28
2022-10-08T01:42:09.026Z,2.55
2022-10-08T01:44:58.972Z,2.83
2022-10-08T01:47:28.927Z,2.75
2022-10-08T01:50:07.518Z,2.60
2022-10-08T01:52:39.087Z,2.75
2022-10-08T01:55:10.895Z,2.60
2022-10-08T01:57:39.532Z,2.40
2022-10-08T02:00:12.413Z,3.13
2022-10-08T02:02:40.507Z,2.60
2022-10-08T02:05:08.216Z,2.20
2022-10-08T02:07:44.366Z,2.40
2022-10-08T02:10:17.368Z,2.20
2022-10-08T02:12:45.341Z,2.42
2022-10-08T02:15:19.953Z,2.78
2022-10-08T02:18:16.055Z,2.42
2022-10-08T02:20:55.289Z,2.67
2022-10-08T02:23:43.804Z,1.85
2022-10-08T02:26:20.129Z,2.28
2022-10-08T02:28:56.419Z,3.25
2022-10-08T02:31:29.582Z,2.63
2022-10-08T02:36:35.667Z,3.05
2022-10-08T02:39:05.759Z,2.83
2022-10-08T02:41:47.815Z,2.85
2022-10-08T02:44:20.474Z,2.38
2022-10-08T02:46:50.464Z,2.78
2022-10-08T02:49:24.166Z,3.10
2022-10-08T02:51:54.399Z,3.05
2022-10-08T02:54:23.275Z,2.42
2022-10-08T02:56:52.925Z,2.75
2022-10-08T02:59:21.191Z,2.88
2022-10-08T03:01:55.839Z,3.00
2022-10-08T03:04:26.092Z,3.22
2022-10-08T03:06:54.549Z,2.80
2022-10-08T03:09:23.942Z,3.40
2022-10-08T03:11:51.808Z,2.97
2022-10-08T03:14:20.996Z,2.60
2022-10-08T03:16:48.292Z,3.50
2022-10-08T03:19:18.109Z,3.17
2022-10-08T03:21:47.323Z,3.13
2022-10-08T03:24:15.520Z,3.10
2022-10-08T03:26:42.834Z,3.40
2022-10-08T03:29:10.531Z,3.97
2022-10-08T03:31:37.397Z,3.80
2022-10-08T03:34:04.653Z,2.90
2022-10-08T03:36:31.932Z,3.40
2022-10-08T03:38:58.750Z,2.85
2022-10-08T03:41:25.639Z,3.38
2022-10-08T03:43:52.424Z,2.38
2022-10-08T03:46:19.323Z,2.70
2022-10-08T03:48:49.483Z,2.85
2022-10-08T03:51:17.585Z,3.20
2022-10-08T03:53:45.091Z,3.03
2022-10-08T03:56:15.161Z,3.17
2022-10-08T03:58:42.658Z,3.15
2022-10-08T04:01:15.450Z,3.67
2022-10-08T04:03:43.264Z,3.40
2022-10-08T04:06:10.044Z,3.15
2022-10-08T04:08:37.103Z,3.58
2022-10-08T04:11:05.864Z,3.10
2022-10-08T04:13:34.274Z,4.03
2022-10-08T04:16:07.335Z,3.72
2022-10-08T04:21:03.716Z,3.42
2022-10-08T04:23:32.965Z,3.45
2022-10-08T04:26:00.036Z,3.33
2022-10-08T04:28:26.909Z,3.72
2022-10-08T04:31:02.558Z,4.05
2022-10-08T04:33:31.620Z,3.88
2022-10-08T04:36:00.254Z,4.10
2022-10-08T04:38:28.882Z,3.83
2022-10-08T04:41:23.368Z,3.45
2022-10-08T04:43:51.814Z,3.83
2022-10-08T04:46:21.023Z,4.03
2022-10-08T04:48:56.193Z,4.20
2022-10-08T04:51:25.032Z,4.28
2022-10-08T04:53:52.767Z,3.97
2022-10-08T04:56:28.218Z,4.03
2022-10-08T04:58:55.767Z,3.55
2022-10-08T05:01:23.755Z,3.25
2022-10-08T05:03:52.793Z,4.40
2022-10-08T05:06:22.404Z,3.45
2022-10-08T05:08:50.050Z,3.45
2022-10-08T05:11:17.745Z,3.67
2022-10-08T05:13:50.018Z,3.83
2022-10-08T05:16:18.268Z,3.40
2022-10-08T05:18:45.753Z,3.15
2022-10-08T05:21:17.612Z,2.53
2022-10-08T05:23:44.969Z,2.70
2022-10-08T05:26:41.386Z,4.18
2022-10-08T05:29:11.208Z,3.28
2022-10-08T05:31:38.595Z,3.65
2022-10-08T05:34:05.968Z,3.50
2022-10-08T05:36:34.513Z,3.75
2022-10-08T05:39:02.697Z,4.07
2022-10-08T05:41:35.655Z,4.10
2022-10-08T05:44:03.064Z,4.63
2022-10-08T05:46:32.094Z,3.40
2022-10-08T05:49:01.571Z,3.15
2022-10-08T05:51:29.579Z,3.83
2022-10-08T05:53:58.373Z,3.58
2022-10-08T05:56:26.543Z,3.42
2022-10-08T05:58:53.980Z,3.53
2022-10-08T06:01:26.503Z,3.28
2022-10-08T06:03:56.912Z,2.83
2022-10-08T06:06:25.128Z,2.20
2022-10-08T06:09:02.028Z,2.85
2022-10-08T06:11:31.024Z,2.97
2022-10-08T06:13:59.599Z,3.33
2022-10-08T06:16:27.470Z,3.53
2022-10-08T06:18:54.369Z,3.05
2022-10-08T06:21:26.230Z,3.53
2022-10-08T06:23:56.166Z,4.00
2022-10-08T06:26:27.361Z,4.40
2022-10-08T06:28:57.117Z,4.15
2022-10-08T06:31:24.477Z,4.28
2022-10-08T06:33:55.065Z,4.38
2022-10-08T06:36:24.688Z,3.83
2022-10-08T06:38:53.272Z,4.03
2022-10-08T06:41:20.733Z,4.20
2022-10-08T06:43:48.112Z,4.38
2022-10-08T06:46:15.946Z,3.67
2022-10-08T06:48:42.960Z,4.95
2022-10-08T06:51:15.440Z,5.50
2022-10-08T06:53:43.444Z,4.97
2022-10-08T06:56:17.924Z,4.72
2022-10-08T06:58:45.991Z,5.03
2022-10-08T07:01:14.423Z,4.30
2022-10-08T07:03:41.408Z,4.65
2022-10-08T07:06:12.729Z,4.30
2022-10-08T07:08:40.173Z,5.40
2022-10-08T07:11:15.624Z,5.22
2022-10-08T07:13:43.364Z,3.55
2022-10-08T07:16:19.632Z,5.50
2022-10-08T07:18:48.744Z,4.47
2022-10-08T07:21:17.219Z,4.68
2022-10-08T07:23:44.463Z,4.80
2022-10-08T07:26:33.161Z,4.38
2022-10-08T07:29:06.551Z,4.97
2022-10-08T07:31:36.568Z,4.18
2022-10-08T07:34:06.339Z,5.28
2022-10-08T07:36:33.789Z,5.18
2022-10-08T07:39:03.401Z,4.88
2022-10-08T07:41:31.742Z,4.57
2022-10-08T07:44:01.027Z,5.45
2022-10-08T07:46:29.984Z,4.05
2022-10-08T07:48:59.239Z,3.90
2022-10-08T07:51:28.480Z,4.18
2022-10-08T07:54:00.217Z,4.25
2022-10-08T07:56:29.463Z,3.67
2022-10-08T07:58:56.352Z,4.20
2022-10-08T08:01:29.706Z,4.57
2022-10-08T08:04:02.330Z,3.75
2022-10-08T08:06:30.862Z,4.32
2022-10-08T08:08:59.239Z,3.55
2022-10-08T08:11:26.771Z,3.65
2022-10-08T08:13:53.984Z,3.92
2022-10-08T08:16:25.508Z,4.13
2022-10-08T08:18:54.898Z,3.58
2022-10-08T08:21:28.223Z,3.22
2022-10-08T08:23:56.918Z,3.40
2022-10-08T08:26:26.733Z,2.88
2022-10-08T08:28:55.810Z,3.25
2022-10-08T08:31:25.636Z,3.00
2022-10-08T08:33:55.132Z,2.83
2022-10-08T08:36:31.894Z,2.53
2022-10-08T08:38:59.340Z,2.78
2022-10-08T08:41:32.387Z,3.78
2022-10-08T08:44:09.654Z,3.42
2022-10-08T08:46:41.104Z,2.05
2022-10-08T08:49:18.030Z,2.03
2022-10-08T08:51:45.089Z,1.73
2022-10-08T08:54:11.915Z,1.98
2022-10-08T08:56:39.512Z,1.83
2022-10-08T08:59:24.486Z,2.40
2022-10-08T09:01:56.380Z,2.60
2022-10-08T09:04:45.410Z,2.95
2022-10-08T09:07:17.653Z,2.13
2022-10-08T09:09:48.177Z,1.98
2022-10-08T09:12:20.855Z,1.48
2022-10-08T09:14:56.778Z,3.00
2022-10-08T09:17:44.892Z,1.52
2022-10-08T09:20:18.046Z,1.60
2022-10-08T09:25:20.439Z,2.60
2022-10-08T09:27:55.771Z,1.50
2022-10-08T09:30:28.844Z,1.35
2022-10-08T09:33:02.491Z,1.77
2022-10-08T09:35:33.988Z,1.98
2022-10-08T09:38:06.093Z,1.65
2022-10-08T09:40:33.279Z,1.48
2022-10-08T09:43:14.106Z,2.35
2022-10-08T09:45:45.441Z,2.00
2022-10-08T09:48:28.103Z,1.55
2022-10-08T09:51:15.219Z,2.17
2022-10-08T09:53:47.092Z,2.10
2022-10-08T09:56:15.132Z,2.58
2022-10-08T09:59:02.081Z,1.55
2022-10-08T10:01:31.479Z,1.42
2022-10-08T10:04:02.826Z,1.30
2022-10-08T10:06:35.069Z,0.82
2022-10-08T10:09:17.922Z,1.60
2022-10-08T10:11:49.484Z,1.00
2022-10-08T10:14:50.995Z,1.25
2022-10-08T10:17:17.709Z,2.75
2022-10-08T10:19:59.257Z,2.03
2022-10-08T10:22:33.613Z,1.02
2022-10-08T10:25:18.106Z,1.23
2022-10-08T10:27:51.668Z,1.08
2022-10-08T10:30:20.421Z,1.05
2022-10-08T10:33:13.135Z,1.65
2022-10-08T10:35:53.770Z,1.13
2022-10-08T10:38:32.458Z,1.48
2022-10-08T10:41:22.259Z,0.98
2022-10-08T10:44:02.825Z,0.85
2022-10-08T10:46:45.894Z,0.60
2022-10-08T10:49:17.593Z,1.02
2022-10-08T10:52:21.520Z,0.70
2022-10-08T10:57:50.255Z,0.82
2022-10-08T11:00:37.886Z,0.90
2022-10-08T11:03:24.255Z,0.77
2022-10-08T11:06:17.971Z,1.00
2022-10-08T11:09:05.973Z,1.10
2022-10-08T11:11:40.951Z,1.63
2022-10-08T11:14:19.946Z,1.00
2022-10-08T11:16:51.888Z,1.75
2022-10-08T11:19:49.154Z,0.98
2022-10-08T11:22:29.891Z,1.13
2022-10-08T11:25:02.860Z,1.75
2022-10-08T11:27:51.045Z,1.48
2022-10-08T11:30:36.910Z,1.80
2022-10-08T11:33:04.947Z,2.05
2022-10-08T11:35:41.242Z,1.48
2022-10-08T11:38:46.473Z,1.50
2022-10-08T11:41:21.876Z,0.82
2022-10-08T11:43:59.375Z,1.67
2022-10-08T11:46:35.320Z,1.60
2022-10-08T11:49:14.259Z,1.13
2022-10-08T11:51:51.234Z,1.00
2022-10-08T11:54:38.632Z,1.08
2022-10-08T11:58:07.061Z,1.50
2022-10-08T12:00:48.527Z,1.27
2022-10-08T12:03:20.871Z,1.20
2022-10-08T12:05:52.418Z,1.02
2022-10-08T12:08:56.254Z,0.73
2022-10-08T12:14:11.633Z,1.17
2022-10-08T12:16:50.547Z,1.15
2022-10-08T12:19:43.733Z,1.10
2022-10-08T12:22:16.797Z,1.52
2022-10-08T12:27:17.701Z,1.10
2022-10-08T12:30:05.282Z,2.25
2022-10-08T12:32:51.624Z,1.20
2022-10-08T12:35:31.727Z,1.30
2022-10-08T12:38:19.896Z,2.92
2022-10-08T12:41:10.828Z,1.13
2022-10-08T12:44:00.620Z,2.38
2022-10-08T12:46:50.401Z,1.23
2022-10-08T12:49:34.872Z,1.10
2022-10-08T12:52:04.600Z,1.40
2022-10-08T12:54:32.621Z,1.23
2022-10-08T12:57:01.820Z,1.15
2022-10-08T12:59:32.169Z,1.15
2022-10-08T13:01:59.160Z,1.27
2022-10-08T13:04:30.027Z,1.20
2022-10-08T13:06:56.916Z,1.45
2022-10-08T13:09:31.302Z,1.10
2022-10-08T13:12:04.069Z,0.93
2022-10-08T13:14:33.395Z,0.93
2022-10-08T13:17:00.808Z,1.25
2022-10-08T13:19:34.029Z,1.13
2022-10-08T13:22:05.091Z,1.15
2022-10-08T13:24:43.733Z,1.00
2022-10-08T13:27:30.459Z,1.10
2022-10-08T13:29:59.164Z,1.67
2022-10-08T13:32:30.118Z,1.00
2022-10-08T13:35:01.635Z,0.88
2022-10-08T13:37:39.226Z,0.82
2022-10-08T13:40:12.093Z,1.38
2022-10-08T13:42:45.813Z,0.80
2022-10-08T13:45:25.061Z,1.35
2022-10-08T13:47:52.761Z,1.10
2022-10-08T13:50:20.365Z,1.08
2022-10-08T13:52:56.288Z,1.58
2022-10-08T13:55:26.954Z,1.13
2022-10-08T13:57:55.402Z,0.90
2022-10-08T14:00:22.769Z,1.38
2022-10-08T14:02:51.716Z,1.25
2022-10-08T14:05:19.827Z,2.22
2022-10-08T14:07:51.044Z,1.00
2022-10-08T14:10:19.024Z,0.90
2022-10-08T14:12:46.022Z,1.30
2022-10-08T14:15:15.015Z,1.55
2022-10-08T14:17:42.100Z,1.42
2022-10-08T14:20:09.799Z,0.90
2022-10-08T14:22:39.376Z,1.35
2022-10-08T14:25:18.959Z,1.50
2022-10-08T14:27:46.070Z,1.40
2022-10-08T14:30:14.487Z,1.33
2022-10-08T14:32:41.553Z,1.35
2022-10-08T14:35:08.837Z,1.00
2022-10-08T14:37:36.338Z,1.25
2022-10-08T14:40:05.877Z,1.10
2022-10-08T14:42:32.806Z,1.50
2022-10-08T14:44:59.794Z,1.30
2022-10-08T14:47:26.573Z,0.80
2022-10-08T14:49:53.448Z,0.88
2022-10-08T14:52:20.642Z,1.40
2022-10-08T14:54:47.456Z,1.13
2022-10-08T14:57:15.002Z,1.23
2022-10-08T14:59:42.599Z,1.35
2022-10-08T15:02:10.971Z,1.20
2022-10-08T15:04:38.626Z,1.20
2022-10-08T15:07:06.167Z,1.45
2022-10-08T15:09:34.585Z,1.30
2022-10-08T15:12:01.403Z,1.48
2022-10-08T15:14:28.207Z,1.10
2022-10-08T15:16:55.062Z,1.42
2022-10-08T15:19:24.003Z,1.55
2022-10-08T15:21:51.314Z,1.52
2022-10-08T15:24:18.320Z,0.93
2022-10-08T15:26:45.185Z,1.08
2022-10-08T15:29:12.168Z,1.25
2022-10-08T15:31:39.097Z,1.42
2022-10-08T15:34:06.136Z,1.27
2022-10-08T15:36:36.888Z,1.40
2022-10-08T15:39:12.107Z,1.63
2022-10-08T15:41:42.093Z,1.48
2022-10-08T15:44:29.485Z,1.58
2022-10-08T15:47:04.549Z,2.10
2022-10-08T15:49:43.022Z,1.38
2022-10-08T15:52:15.710Z,1.52
2022-10-08T15:54:42.934Z,1.70
2022-10-08T15:57:11.584Z,1.50
2022-10-08T15:59:38.465Z,1.45
2022-10-08T16:02:06.020Z,1.65
2022-10-08T16:04:33.073Z,1.17
2022-10-08T16:07:00.299Z,1.83
2022-10-08T16:09:27.178Z,2.10
2022-10-08T16:11:54.031Z,1.45
2022-10-08T16:14:23.596Z,2.03
2022-10-08T16:16:51.385Z,1.33
2022-10-08T16:19:23.929Z,1.75
2022-10-08T16:21:52.162Z,1.83
2022-10-08T16:24:19.655Z,1.73
2022-10-08T16:26:48.195Z,2.85
2022-10-08T16:29:16.920Z,1.80
2022-10-08T16:31:45.476Z,1.40
2022-10-08T16:34:18.769Z,2.35
2022-10-08T16:36:48.737Z,2.28
2022-10-08T16:39:21.123Z,2.90
2022-10-08T16:41:48.991Z,1.65
2022-10-08T16:44:18.319Z,1.30
2022-10-08T16:46:50.136Z,2.25
2022-10-08T16:49:24.246Z,3.33
2022-10-08T16:51:58.099Z,2.25
2022-10-08T16:54:25.430Z,2.25
2022-10-08T16:56:52.503Z,1.95
2022-10-08T16:59:21.708Z,2.30
2022-10-08T17:01:51.243Z,1.95
2022-10-08T17:04:19.444Z,2.55
2022-10-08T17:06:46.585Z,1.73
2022-10-08T17:09:13.851Z,2.10
2022-10-08T17:11:42.029Z,2.95
2022-10-08T17:14:11.585Z,2.22
2022-10-08T17:16:39.611Z,1.60
2022-10-08T17:19:06.650Z,1.90
2022-10-08T17:21:35.023Z,2.42
2022-10-08T17:24:02.957Z,1.88
2022-10-08T17:26:31.454Z,2.70
2022-10-08T17:29:03.357Z,1.95
2022-10-08T17:31:31.891Z,1.90
2022-10-08T17:34:00.100Z,1.60
2022-10-08T17:36:32.563Z,2.15
2022-10-08T17:39:01.075Z,2.25
2022-10-08T17:41:30.714Z,2.42
2022-10-08T17:44:00.017Z,1.63
2022-10-08T17:46:32.973Z,2.65
2022-10-08T17:49:00.196Z,2.45
2022-10-08T17:51:28.982Z,2.20
2022-10-08T17:53:58.363Z,3.42
2022-10-08T17:56:25.837Z,2.67
2022-10-08T17:58:53.446Z,2.65
2022-10-08T18:01:25.475Z,3.38
2022-10-08T18:03:55.437Z,3.15
2022-10-08T18:06:23.374Z,3.15
2022-10-08T18:08:55.249Z,3.15
2022-10-08T18:11:22.773Z,2.75
2022-10-08T18:13:50.254Z,2.05
2022-10-08T18:16:18.600Z,2.10
2022-10-08T18:18:47.323Z,2.63
2022-10-08T18:21:16.346Z,2.72
2022-10-08T18:23:43.673Z,1.90
2022-10-08T18:26:19.391Z,2.53
2022-10-08T18:28:48.528Z,2.30
2022-10-08T18:31:16.486Z,1.70
2022-10-08T18:33:45.811Z,1.52
2022-10-08T18:36:15.236Z,1.88
2022-10-08T18:38:43.797Z,2.03
2022-10-08T18:41:31.424Z,1.83
2022-10-08T18:44:01.099Z,2.67
2022-10-08T18:46:28.620Z,1.85
2022-10-08T18:48:56.129Z,1.60
2022-10-08T18:51:25.789Z,1.80
2022-10-08T18:53:54.036Z,2.10
2022-10-08T18:56:25.572Z,2.60
2022-10-08T18:58:52.919Z,2.20
2022-10-08T19:01:22.501Z,3.42
2022-10-08T19:03:52.356Z,4.72
2022-10-08T19:06:21.804Z,4.15
2022-10-08T19:08:48.953Z,2.75
2022-10-08T19:11:22.943Z,3.08
2022-10-08T19:13:52.244Z,2.90
2022-10-08T19:16:19.101Z,2.85
2022-10-08T19:18:56.565Z,3.33
2022-10-08T19:21:25.063Z,2.22
2022-10-08T19:23:53.055Z,3.20
2022-10-08T19:26:19.883Z,3.20
2022-10-08T19:28:49.016Z,2.55
2022-10-08T19:31:17.918Z,3.22
2022-10-08T19:33:51.590Z,3.60
2022-10-08T19:36:19.779Z,2.70
2022-10-08T19:39:20.180Z,2.75
2022-10-08T19:41:47.170Z,3.17
2022-10-08T19:44:14.814Z,2.80
2022-10-08T19:46:41.659Z,2.33
2022-10-08T19:49:09.821Z,3.00
2022-10-08T19:51:37.641Z,3.30
2022-10-08T19:54:05.168Z,3.25
2022-10-08T19:56:32.033Z,3.33
2022-10-08T19:58:59.725Z,2.67
2022-10-08T20:01:32.687Z,2.97
2022-10-08T20:04:00.994Z,3.28
2022-10-08T20:06:30.527Z,3.78
2022-10-08T20:08:59.682Z,3.40
2022-10-08T20:11:27.755Z,3.38
2022-10-08T20:13:55.153Z,4.00
2022-10-08T20:16:25.065Z,4.40
2022-10-08T20:18:59.363Z,3.40
2022-10-08T20:21:31.101Z,4.97
2022-10-08T20:23:57.968Z,3.85
2022-10-08T20:26:36.256Z,4.22
2022-10-08T20:29:06.801Z,3.38
2022-10-08T20:31:35.860Z,3.47
2022-10-08T20:34:05.286Z,3.78
2022-10-08T20:36:33.055Z,3.50
2022-10-08T20:39:00.437Z,3.50
2022-10-08T20:41:30.962Z,4.15
2022-10-08T20:44:03.339Z,3.40
2022-10-08T20:46:31.425Z,3.22
2022-10-08T20:48:58.404Z,3.47
2022-10-08T20:51:26.771Z,3.40
2022-10-08T20:54:05.421Z,3.83
2022-10-08T20:56:39.293Z,3.55
2022-10-08T20:59:08.389Z,4.10
2022-10-08T21:01:38.307Z,3.83
2022-10-08T21:04:07.033Z,5.60
2022-10-08T21:06:40.521Z,4.38
2022-10-08T21:09:08.067Z,3.58
2022-10-08T21:11:35.606Z,4.15
2022-10-08T21:14:03.665Z,4.68
2022-10-08T21:16:33.890Z,3.40
2022-10-08T21:19:03.126Z,3.85
2022-10-08T21:21:31.611Z,4.10
2022-10-08T21:23:59.412Z,3.65
2022-10-08T21:26:30.090Z,4.82
2022-10-08T21:28:59.213Z,4.32
2022-10-08T21:31:27.937Z,4.15
2022-10-08T21:33:55.474Z,4.00
2022-10-08T21:36:25.254Z,3.92
2022-10-08T21:38:52.268Z,4.28
2022-10-08T21:41:22.819Z,4.95
2022-10-08T21:43:56.717Z,4.63
2022-10-08T21:46:28.004Z,5.22
2022-10-08T21:48:56.642Z,5.60
2022-10-08T21:51:24.009Z,5.47
2022-10-08T21:53:54.052Z,5.90
2022-10-08T21:56:23.260Z,5.10
2022-10-08T21:58:55.459Z,4.57
2022-10-08T22:01:25.412Z,4.22
2022-10-08T22:03:56.809Z,4.70
2022-10-08T22:06:24.697Z,4.55
2022-10-08T22:08:51.760Z,3.40
2022-10-08T22:11:19.000Z,3.15
2022-10-08T22:13:46.148Z,3.08
2022-10-08T22:16:14.671Z,4.28
2022-10-08T22:18:42.195Z,3.58
2022-10-08T22:21:14.962Z,3.20
2022-10-08T22:23:41.978Z,3.42
2022-10-08T22:26:11.600Z,3.55
2022-10-08T22:28:38.999Z,3.33
2022-10-08T22:31:08.611Z,4.47
2022-10-08T22:33:36.054Z,4.57
2022-10-08T22:36:08.236Z,4.22
2022-10-08T22:38:38.555Z,4.43
2022-10-08T22:41:08.053Z,4.68
2022-10-08T22:43:36.792Z,4.55
2022-10-08T22:46:06.192Z,3.88
2022-10-08T22:48:33.678Z,3.95
2022-10-08T22:51:06.100Z,4.05
2022-10-08T22:53:33.156Z,4.28
2022-10-08T22:56:00.132Z,4.43
2022-10-08T22:58:26.914Z,4.03
2022-10-08T23:01:11.684Z,4.68
2022-10-08T23:03:39.002Z,4.25
2022-10-08T23:06:24.039Z,3.78
2022-10-08T23:08:56.860Z,4.28
2022-10-08T23:11:24.010Z,4.32
2022-10-08T23:13:55.742Z,4.50
2022-10-08T23:16:24.260Z,5.05
2022-10-08T23:19:01.101Z,3.85
2022-10-08T23:21:28.572Z,4.93
2022-10-08T23:23:56.341Z,4.53
2022-10-08T23:26:24.393Z,4.82
2022-10-08T23:29:00.863Z,4.50
2022-10-08T23:31:30.529Z,4.00
2022-10-08T23:33:58.424Z,4.65
2022-10-08T23:36:27.834Z,3.55
2022-10-08T23:38:56.405Z,4.13
2022-10-08T23:41:24.127Z,3.97
2022-10-08T23:43:51.869Z,3.92
2022-10-08T23:46:21.028Z,4.38
2022-10-08T23:48:49.389Z,2.92
2022-10-08T23:51:17.273Z,3.50
2022-10-08T23:53:45.185Z,3.50
2022-10-08T23:56:12.946Z,3.22
2022-10-08T23:58:40.150Z,3.33
